Time;durP1;ratioP1;P1;durP2;ratioP2;P2;SDS_P1;SDS_P2;PMS_P1;PMS_P2;Temp;Humidity;BMP_temperature;BMP_pressure;BME280_temperature;BME280_humidity;BME280_pressure;Samples;Min_cycle;Max_cycle;Signal;HPM_P1;HPM_P2
2022/07/29 00:00:53;;;;;;;0.40;0.40;;;15.20;99.90;;;;;;4904669;28;20047;-83
2022/07/29 00:03:19;;;;;;;0.30;0.30;;;15.20;99.90;;;;;;4926973;28;20050;-84
2022/07/29 00:05:45;;;;;;;0.30;0.30;;;15.30;99.90;;;;;;4923331;28;20061;-82
2022/07/29 00:08:11;;;;;;;0.35;0.35;;;15.30;99.90;;;;;;4935488;28;20050;-83
2022/07/29 00:10:37;;;;;;;0.40;0.40;;;15.10;99.90;;;;;;4921883;28;20050;-83
2022/07/29 00:13:03;;;;;;;0.30;0.30;;;15.20;99.90;;;;;;4925020;28;20125;-83
2022/07/29 00:15:28;;;;;;;0.35;0.35;;;15.10;99.90;;;;;;4917937;28;20059;-83
2022/07/29 00:17:54;;;;;;;0.30;0.30;;;15.10;99.90;;;;;;4922541;28;20165;-83
2022/07/29 00:20:20;;;;;;;0.30;0.30;;;15.20;99.90;;;;;;4918808;28;20149;-84
2022/07/29 00:22:46;;;;;;;0.30;0.30;;;15.20;99.90;;;;;;4911059;28;21152;-83
2022/07/29 00:25:12;;;;;;;0.30;0.30;;;15.10;99.90;;;;;;4899969;28;20043;-83
2022/07/29 00:27:38;;;;;;;0.30;0.30;;;15.10;99.90;;;;;;4916414;28;20102;-83
2022/07/29 00:30:05;;;;;;;0.40;0.40;;;15.10;99.90;;;;;;4910881;28;20042;-83
2022/07/29 00:32:31;;;;;;;0.30;0.30;;;15.10;99.90;;;;;;4914212;28;20929;-83
2022/07/29 00:37:41;;;;;;;0.30;0.30;;;15.10;99.90;;;;;;4917509;28;20975;-83
2022/07/29 00:40:07;;;;;;;0.30;0.30;;;15.10;99.90;;;;;;4919173;28;20133;-83
2022/07/29 00:42:49;;;;;;;0.30;0.30;;;15.10;99.90;;;;;;4918580;28;20078;-84
2022/07/29 00:45:15;;;;;;;0.40;0.40;;;15.20;99.90;;;;;;4926073;28;20050;-83
2022/07/29 00:47:42;;;;;;;0.30;0.30;;;15.10;99.90;;;;;;4933052;28;20105;-82
2022/07/29 00:50:10;;;;;;;0.30;0.30;;;15.20;99.90;;;;;;4915732;28;20438;-82
2022/07/29 00:52:37;;;;;;;0.30;0.30;;;15.10;99.90;;;;;;4919523;28;20043;-83
2022/07/29 00:55:09;;;;;;;0.30;0.30;;;15.20;99.90;;;;;;4940120;28;20506;-84
2022/07/29 00:57:36;;;;;;;0.30;0.30;;;15.10;99.90;;;;;;4917933;28;20046;-83
2022/07/29 01:00:07;;;;;;;0.40;0.40;;;15.10;99.90;;;;;;4914793;28;20047;-83
2022/07/29 01:02:33;;;;;;;0.30;0.30;;;15.10;99.90;;;;;;4915740;28;20391;-82
2022/07/29 01:04:59;;;;;;;0.30;0.30;;;15.00;99.90;;;;;;4918525;28;20082;-83
2022/07/29 01:07:27;;;;;;;0.30;0.30;;;15.00;99.90;;;;;;4903054;28;20046;-83
2022/07/29 01:09:54;;;;;;;0.40;0.40;;;15.00;99.90;;;;;;4923745;28;20153;-82
2022/07/29 01:12:39;;;;;;;0.30;0.30;;;15.00;99.90;;;;;;4918781;28;20510;-83
2022/07/29 01:15:07;;;;;;;0.40;0.40;;;15.00;99.90;;;;;;4920280;28;20066;-83
2022/07/29 01:18:02;;;;;;;0.30;0.30;;;15.00;99.90;;;;;;4903232;28;20054;-85
2022/07/29 01:21:10;;;;;;;0.30;0.30;;;15.00;99.90;;;;;;4896677;28;20058;-83
2022/07/29 01:23:53;;;;;;;0.32;0.32;;;15.00;99.90;;;;;;4926627;28;20054;-84
2022/07/29 01:26:42;;;;;;;0.30;0.30;;;15.00;99.90;;;;;;4918519;28;20058;-85
2022/07/29 01:29:25;;;;;;;0.40;0.40;;;15.00;99.90;;;;;;4918030;28;20438;-83
2022/07/29 01:32:06;;;;;;;0.35;0.35;;;15.10;99.90;;;;;;4919346;28;20129;-83
2022/07/29 01:34:52;;;;;;;0.35;0.35;;;15.10;99.90;;;;;;4917851;28;20520;-83
2022/07/29 01:37:29;;;;;;;0.40;0.40;;;15.00;99.90;;;;;;4927269;28;20050;-82
2022/07/29 01:39:58;;;;;;;0.40;0.40;;;15.10;99.90;;;;;;4931081;28;20061;-83
2022/07/29 01:42:27;;;;;;;0.30;0.30;;;15.10;99.90;;;;;;4930675;28;20050;-83
2022/07/29 01:45:00;;;;;;;0.40;0.40;;;15.00;99.90;;;;;;4937685;28;20046;-83
2022/07/29 01:47:33;;;;;;;0.30;0.30;;;15.10;99.90;;;;;;4928865;28;20055;-83
2022/07/29 01:50:01;;;;;;;0.38;0.38;;;15.10;99.90;;;;;;4920753;28;20205;-83
2022/07/29 01:52:52;;;;;;;0.40;0.40;;;15.00;99.90;;;;;;4929208;28;20138;-83
2022/07/29 01:55:21;;;;;;;0.40;0.40;;;15.00;99.90;;;;;;4933557;28;20133;-83
2022/07/29 01:57:48;;;;;;;0.30;0.30;;;15.00;99.90;;;;;;4931238;28;21025;-83
2022/07/29 02:00:15;;;;;;;0.40;0.40;;;15.00;99.90;;;;;;4931058;28;20074;-84
2022/07/29 02:02:46;;;;;;;0.30;0.30;;;15.10;99.90;;;;;;4939483;28;20435;-83
2022/07/29 02:05:16;;;;;;;0.40;0.40;;;15.00;99.90;;;;;;4929289;28;20773;-82
2022/07/29 02:07:44;;;;;;;0.30;0.30;;;15.00;99.90;;;;;;4946805;28;20042;-83
2022/07/29 02:10:13;;;;;;;0.90;0.40;;;15.00;99.90;;;;;;4932913;28;20413;-83
2022/07/29 02:12:42;;;;;;;0.30;0.30;;;14.90;99.90;;;;;;4955025;28;20493;-83
2022/07/29 02:15:09;;;;;;;0.40;0.40;;;15.00;99.90;;;;;;4933766;28;20424;-83
2022/07/29 02:17:51;;;;;;;0.30;0.30;;;14.90;99.90;;;;;;4936118;28;20058;-82
2022/07/29 02:20:17;;;;;;;0.30;0.30;;;14.90;99.90;;;;;;4956877;28;20579;-82
2022/07/29 02:22:45;;;;;;;0.30;0.30;;;14.90;99.90;;;;;;4948854;28;20068;-82
2022/07/29 02:25:12;;;;;;;0.35;0.35;;;14.90;99.90;;;;;;4934837;28;21104;-83
2022/07/29 02:27:40;;;;;;;0.30;0.30;;;15.00;99.90;;;;;;4949763;28;20070;-83
2022/07/29 02:30:07;;;;;;;0.30;0.30;;;14.90;99.90;;;;;;4934550;28;20058;-83
2022/07/29 02:32:36;;;;;;;0.30;0.30;;;14.90;99.90;;;;;;4935418;28;20054;-83
2022/07/29 02:35:04;;;;;;;0.30;0.30;;;14.90;99.90;;;;;;4934645;28;20096;-82
2022/07/29 02:37:31;;;;;;;0.30;0.30;;;14.90;99.90;;;;;;4934889;28;20051;-82
2022/07/29 02:39:58;;;;;;;0.30;0.30;;;15.00;99.90;;;;;;4951265;28;20055;-81
2022/07/29 02:42:27;;;;;;;0.40;0.40;;;14.90;99.90;;;;;;4919316;28;20058;-82
2022/07/29 02:44:53;;;;;;;0.32;0.32;;;14.90;99.90;;;;;;4940735;28;20867;-82
2022/07/29 02:47:21;;;;;;;0.30;0.30;;;14.90;99.90;;;;;;4953365;28;20173;-83
2022/07/29 02:49:51;;;;;;;0.30;0.30;;;14.90;99.90;;;;;;4951381;28;20105;-82
2022/07/29 02:52:23;;;;;;;0.40;0.40;;;14.90;99.90;;;;;;4934890;28;20057;-83
2022/07/29 02:54:57;;;;;;;0.35;0.35;;;14.80;99.90;;;;;;4948327;28;20417;-82
2022/07/29 02:57:39;;;;;;;0.30;0.30;;;14.80;99.90;;;;;;4945342;28;20060;-82
2022/07/29 03:00:08;;;;;;;0.30;0.30;;;14.90;99.90;;;;;;4952509;28;20061;-83
2022/07/29 03:02:38;;;;;;;0.40;0.40;;;14.90;99.90;;;;;;4932703;28;20078;-82
2022/07/29 03:05:07;;;;;;;0.35;0.35;;;14.80;99.90;;;;;;4932906;28;20112;-82
2022/07/29 03:07:35;;;;;;;0.40;0.40;;;14.80;99.90;;;;;;4931692;28;20193;-83
2022/07/29 03:10:03;;;;;;;0.30;0.30;;;14.80;99.90;;;;;;4945518;28;20110;-82
2022/07/29 03:12:29;;;;;;;0.30;0.30;;;14.80;99.90;;;;;;4931822;28;20490;-82
2022/07/29 03:14:56;;;;;;;0.30;0.30;;;14.80;99.90;;;;;;4932636;28;20117;-82
2022/07/29 03:17:23;;;;;;;0.32;0.32;;;14.70;99.90;;;;;;4935364;28;20910;-82
2022/07/29 03:19:48;;;;;;;0.32;0.32;;;14.70;99.90;;;;;;4934802;28;20537;-82
2022/07/29 03:22:14;;;;;;;0.30;0.30;;;14.70;99.90;;;;;;4921295;28;20051;-83
2022/07/29 03:24:40;;;;;;;0.30;0.30;;;14.70;99.90;;;;;;4934279;28;20057;-82
2022/07/29 03:27:06;;;;;;;0.40;0.40;;;14.60;99.90;;;;;;4934907;28;20097;-82
2022/07/29 03:29:32;;;;;;;0.40;0.40;;;14.60;99.90;;;;;;4920381;28;20050;-82
2022/07/29 03:31:58;;;;;;;0.40;0.40;;;14.60;99.90;;;;;;4942059;28;20061;-83
2022/07/29 03:34:24;;;;;;;0.30;0.30;;;14.50;99.90;;;;;;4933780;28;20054;-83
2022/07/29 03:36:50;;;;;;;0.30;0.30;;;14.50;99.90;;;;;;4952143;28;20065;-82
2022/07/29 03:39:21;;;;;;;0.30;0.30;;;14.50;99.90;;;;;;4932264;28;20055;-83
2022/07/29 03:41:51;;;;;;;0.40;0.40;;;14.50;99.90;;;;;;4934450;28;20050;-83
2022/07/29 03:44:21;;;;;;;0.30;0.30;;;14.50;99.90;;;;;;4933593;28;20786;-83
2022/07/29 03:46:49;;;;;;;0.40;0.40;;;14.50;99.90;;;;;;4931582;28;20050;-83
2022/07/29 03:49:16;;;;;;;0.30;0.30;;;14.50;99.90;;;;;;4926423;28;20058;-83
2022/07/29 03:51:43;;;;;;;0.38;0.38;;;14.50;99.90;;;;;;4931439;28;20038;-83
2022/07/29 03:54:09;;;;;;;0.40;0.40;;;14.50;99.90;;;;;;4938211;28;20081;-83
2022/07/29 03:56:39;;;;;;;0.30;0.30;;;14.50;99.90;;;;;;4935490;28;20682;-84
2022/07/29 03:59:05;;;;;;;0.40;0.40;;;14.50;99.90;;;;;;4917406;28;20058;-83
2022/07/29 04:01:33;;;;;;;0.40;0.40;;;14.40;99.90;;;;;;4934947;28;20757;-83
2022/07/29 04:04:01;;;;;;;0.30;0.30;;;14.40;99.90;;;;;;4934265;28;20458;-83
2022/07/29 04:06:26;;;;;;;0.40;0.40;;;14.50;99.90;;;;;;4933066;28;20216;-85
2022/07/29 04:08:52;;;;;;;0.40;0.40;;;14.40;99.90;;;;;;4931882;28;20504;-84
2022/07/29 04:11:19;;;;;;;0.40;0.40;;;14.60;99.90;;;;;;4933290;28;20070;-83
2022/07/29 04:13:44;;;;;;;0.40;0.40;;;14.50;99.90;;;;;;4936160;28;20057;-84
2022/07/29 04:16:10;;;;;;;0.40;0.40;;;14.50;99.90;;;;;;4926283;28;20078;-82
2022/07/29 04:18:36;;;;;;;0.40;0.40;;;14.50;99.90;;;;;;4932711;28;20051;-83
2022/07/29 04:21:03;;;;;;;0.40;0.40;;;14.50;99.90;;;;;;4942872;28;20055;-83
2022/07/29 04:23:33;;;;;;;0.30;0.30;;;14.50;99.90;;;;;;4918569;28;20125;-83
2022/07/29 04:26:05;;;;;;;0.40;0.40;;;14.50;99.90;;;;;;4935479;28;20517;-83
2022/07/29 04:28:30;;;;;;;0.30;0.30;;;14.50;99.90;;;;;;4937759;28;20098;-82
2022/07/29 04:30:56;;;;;;;0.35;0.35;;;14.50;99.90;;;;;;4942017;28;20138;-84
2022/07/29 04:33:22;;;;;;;0.40;0.40;;;14.60;99.90;;;;;;4932319;28;20054;-83
2022/07/29 04:35:48;;;;;;;0.30;0.30;;;14.60;99.90;;;;;;4924764;28;20078;-83
2022/07/29 04:38:14;;;;;;;0.40;0.40;;;14.70;99.90;;;;;;4934882;28;22911;-83
2022/07/29 04:40:39;;;;;;;0.30;0.30;;;14.60;99.90;;;;;;4932103;28;20053;-83
2022/07/29 04:43:06;;;;;;;0.30;0.30;;;14.70;99.90;;;;;;4916130;28;20054;-83
2022/07/29 04:45:31;;;;;;;0.30;0.30;;;14.80;99.90;;;;;;4916067;28;20054;-83
2022/07/29 04:47:57;;;;;;;0.30;0.30;;;14.80;99.90;;;;;;4932523;28;20671;-83
2022/07/29 04:50:23;;;;;;;0.40;0.40;;;14.80;99.90;;;;;;4932515;28;20270;-84
2022/07/29 04:52:49;;;;;;;0.30;0.30;;;14.80;99.90;;;;;;4931976;28;20042;-83
2022/07/29 04:55:14;;;;;;;0.40;0.40;;;14.80;99.90;;;;;;4917809;28;20097;-82
2022/07/29 04:57:40;;;;;;;0.30;0.30;;;14.90;99.90;;;;;;4917177;28;20043;-83
2022/07/29 05:00:07;;;;;;;0.30;0.30;;;15.00;99.90;;;;;;4933581;28;20129;-82
2022/07/29 05:02:33;;;;;;;0.40;0.40;;;15.00;99.90;;;;;;4947222;28;20137;-84
2022/07/29 05:04:59;;;;;;;0.32;0.32;;;15.10;99.90;;;;;;4931758;28;20521;-84
2022/07/29 05:07:25;;;;;;;0.40;0.40;;;15.20;99.90;;;;;;4932435;28;20054;-83
2022/07/29 05:09:50;;;;;;;0.30;0.30;;;15.20;99.90;;;;;;4932748;28;20050;-82
2022/07/29 05:12:16;;;;;;;0.30;0.30;;;15.50;99.90;;;;;;4934133;28;20058;-84
2022/07/29 05:14:42;;;;;;;0.40;0.40;;;15.50;99.90;;;;;;4946580;28;20675;-84
2022/07/29 05:17:08;;;;;;;0.30;0.30;;;16.50;99.90;;;;;;4935361;28;20666;-83
2022/07/29 05:19:33;;;;;;;0.30;0.30;;;17.30;99.90;;;;;;4935479;28;20082;-84
2022/07/29 05:21:59;;;;;;;0.30;0.30;;;18.10;99.90;;;;;;4933435;28;20477;-85
2022/07/29 05:24:25;;;;;;;0.30;0.30;;;17.80;99.90;;;;;;4919338;28;20078;-83
2022/07/29 05:26:51;;;;;;;0.30;0.30;;;17.90;99.90;;;;;;4934908;28;20042;-84
2022/07/29 05:29:17;;;;;;;0.30;0.30;;;17.10;99.90;;;;;;4939518;28;20053;-84
2022/07/29 05:31:43;;;;;;;0.30;0.30;;;17.00;99.90;;;;;;4936573;28;20525;-84
2022/07/29 05:34:09;;;;;;;0.30;0.30;;;16.80;99.90;;;;;;4933804;28;20863;-84
2022/07/29 05:36:34;;;;;;;0.30;0.30;;;16.90;99.90;;;;;;4936681;28;20049;-84
2022/07/29 05:39:00;;;;;;;0.30;0.30;;;16.70;99.90;;;;;;4916143;28;20038;-82
2022/07/29 05:41:26;;;;;;;0.30;0.30;;;16.80;99.90;;;;;;4917280;28;20100;-83
2022/07/29 05:43:52;;;;;;;0.30;0.30;;;17.40;99.90;;;;;;4936033;28;20116;-80
2022/07/29 05:46:18;;;;;;;0.30;0.30;;;17.80;99.90;;;;;;4948923;28;20055;-83
2022/07/29 05:48:43;;;;;;;0.30;0.30;;;18.20;99.90;;;;;;4945930;28;20069;-84
2022/07/29 05:51:09;;;;;;;0.40;0.40;;;18.40;99.90;;;;;;4925163;28;20097;-84
2022/07/29 05:53:35;;;;;;;0.30;0.30;;;18.80;99.90;;;;;;4931669;28;20076;-84
2022/07/29 05:56:04;;;;;;;0.30;0.30;;;18.30;99.90;;;;;;4931923;28;20058;-86
2022/07/29 05:58:30;;;;;;;0.30;0.30;;;18.00;99.90;;;;;;4930289;28;20173;-84
2022/07/29 06:00:58;;;;;;;0.30;0.30;;;17.90;99.90;;;;;;4933202;28;20051;-84
2022/07/29 06:03:25;;;;;;;0.30;0.30;;;18.10;99.90;;;;;;4942037;28;20083;-84
2022/07/29 06:05:51;;;;;;;0.30;0.30;;;18.30;99.90;;;;;;4930358;28;20051;-84
2022/07/29 06:08:17;;;;;;;0.30;0.30;;;18.80;99.90;;;;;;4930822;28;20399;-85
2022/07/29 06:10:43;;;;;;;0.30;0.30;;;18.70;99.90;;;;;;4911920;28;20051;-85
2022/07/29 06:13:09;;;;;;;0.30;0.30;;;19.00;99.90;;;;;;4932608;28;20057;-83
2022/07/29 06:15:35;;;;;;;0.30;0.30;;;18.60;99.90;;;;;;4944214;28;20047;-84
2022/07/29 06:18:01;;;;;;;0.30;0.30;;;18.00;99.90;;;;;;4928058;28;20055;-84
2022/07/29 06:20:31;;;;;;;0.30;0.30;;;18.40;99.90;;;;;;4930141;28;20046;-84
2022/07/29 06:22:57;;;;;;;0.30;0.30;;;18.30;99.90;;;;;;4941697;28;20070;-84
2022/07/29 06:25:23;;;;;;;0.30;0.30;;;18.30;99.90;;;;;;4917374;28;20047;-84
2022/07/29 06:27:48;;;;;;;0.30;0.30;;;18.00;99.90;;;;;;4915465;28;20098;-84
2022/07/29 06:30:14;;;;;;;0.30;0.30;;;18.30;99.90;;;;;;4934819;28;20058;-84
2022/07/29 06:32:41;;;;;;;0.30;0.30;;;17.80;99.90;;;;;;4928425;28;20051;-86
2022/07/29 06:35:07;;;;;;;0.30;0.30;;;17.80;99.90;;;;;;4930814;28;20097;-84
2022/07/29 06:37:33;;;;;;;0.30;0.30;;;17.50;99.90;;;;;;4933113;28;20054;-86
2022/07/29 06:42:43;;;;;;;0.30;0.30;;;17.70;99.90;;;;;;4936555;28;20046;-84
2022/07/29 06:45:14;;;;;;;0.30;0.30;;;17.70;99.90;;;;;;4911703;28;20043;-86
2022/07/29 06:47:40;;;;;;;0.30;0.30;;;17.40;99.90;;;;;;4930497;28;20062;-84
2022/07/29 06:50:06;;;;;;;0.30;0.30;;;17.20;99.90;;;;;;4928360;28;20559;-85
2022/07/29 06:52:32;;;;;;;0.30;0.30;;;17.50;99.90;;;;;;4927826;28;20047;-84
2022/07/29 06:54:59;;;;;;;0.40;0.40;;;17.30;99.90;;;;;;4926588;28;20422;-85
2022/07/29 06:57:25;;;;;;;0.30;0.30;;;17.70;99.90;;;;;;4933220;28;20234;-83
2022/07/29 06:59:50;;;;;;;0.30;0.30;;;17.80;99.90;;;;;;4929396;28;21015;-83
2022/07/29 07:02:16;;;;;;;0.30;0.30;;;17.40;99.90;;;;;;4929362;28;20050;-83
2022/07/29 07:04:42;;;;;;;0.30;0.30;;;17.40;99.90;;;;;;4927503;28;20051;-86
2022/07/29 07:07:08;;;;;;;0.30;0.30;;;17.70;99.90;;;;;;4932609;28;20051;-84
2022/07/29 07:09:33;;;;;;;0.30;0.30;;;17.70;99.90;;;;;;4931857;28;20043;-84
2022/07/29 07:11:59;;;;;;;0.30;0.30;;;17.80;99.90;;;;;;4931690;28;20706;-84
2022/07/29 07:14:26;;;;;;;0.30;0.30;;;18.00;99.90;;;;;;4931689;28;20262;-84
2022/07/29 07:16:52;;;;;;;0.30;0.30;;;17.90;99.90;;;;;;4934392;28;20521;-83
2022/07/29 07:19:19;;;;;;;0.30;0.30;;;17.50;99.90;;;;;;4932817;28;20055;-86
2022/07/29 07:21:44;;;;;;;0.30;0.30;;;17.20;99.90;;;;;;4943332;28;20039;-83
2022/07/29 07:24:10;;;;;;;0.30;0.30;;;17.40;99.90;;;;;;4933509;28;20054;-85
2022/07/29 07:26:36;;;;;;;0.30;0.30;;;17.70;99.90;;;;;;4930767;28;20442;-84
2022/07/29 07:29:02;;;;;;;0.30;0.30;;;17.70;99.90;;;;;;4934940;28;20121;-85
2022/07/29 07:31:28;;;;;;;0.30;0.30;;;17.90;99.90;;;;;;4934898;28;20105;-83
2022/07/29 07:33:54;;;;;;;0.50;0.50;;;17.80;99.90;;;;;;4930440;28;20062;-83
2022/07/29 07:36:20;;;;;;;0.40;0.40;;;18.30;99.90;;;;;;4927428;28;20640;-84
2022/07/29 07:38:46;;;;;;;0.30;0.30;;;18.20;99.90;;;;;;4919817;28;20043;-85
2022/07/29 07:41:11;;;;;;;0.30;0.30;;;18.60;99.90;;;;;;4930541;28;20505;-85
2022/07/29 07:43:37;;;;;;;0.30;0.30;;;18.40;99.90;;;;;;4917428;28;20055;-83
2022/07/29 07:46:03;;;;;;;0.30;0.30;;;18.50;99.90;;;;;;4934475;28;20047;-84
2022/07/29 07:48:29;;;;;;;0.30;0.30;;;18.70;99.90;;;;;;4931121;28;20055;-84
2022/07/29 07:50:55;;;;;;;0.30;0.30;;;18.70;99.90;;;;;;4931908;28;20868;-84
2022/07/29 07:53:21;;;;;;;0.30;0.30;;;18.80;99.90;;;;;;4915355;28;20146;-84
2022/07/29 07:55:47;;;;;;;0.30;0.30;;;19.00;99.90;;;;;;4934768;28;20059;-85
2022/07/29 07:58:13;;;;;;;0.30;0.30;;;19.00;99.90;;;;;;4932555;28;20130;-82
2022/07/29 08:00:39;;;;;;;0.30;0.30;;;18.80;99.90;;;;;;4941152;28;20051;-85
2022/07/29 08:03:04;;;;;;;0.30;0.30;;;18.70;99.90;;;;;;4929087;28;20043;-83
2022/07/29 08:05:30;;;;;;;0.30;0.30;;;18.70;99.90;;;;;;4927877;28;20502;-85
2022/07/29 08:07:56;;;;;;;0.30;0.30;;;18.70;99.90;;;;;;4925538;28;20856;-84
2022/07/29 08:13:07;;;;;;;0.30;0.30;;;18.90;99.90;;;;;;4942983;28;20050;-83
2022/07/29 08:15:33;;;;;;;0.30;0.30;;;18.60;99.90;;;;;;4948965;28;20134;-84
2022/07/29 08:18:00;;;;;;;0.30;0.30;;;18.30;99.90;;;;;;4929427;28;20055;-82
2022/07/29 08:20:26;;;;;;;0.30;0.30;;;18.60;99.90;;;;;;4930751;28;20058;-84
2022/07/29 08:22:53;;;;;;;0.30;0.30;;;18.50;99.90;;;;;;4924273;28;20105;-83
2022/07/29 08:25:20;;;;;;;0.30;0.30;;;18.50;99.90;;;;;;4931568;28;20050;-84
2022/07/29 08:27:47;;;;;;;0.30;0.30;;;18.50;99.90;;;;;;4930332;28;20133;-85
2022/07/29 08:30:13;;;;;;;0.30;0.30;;;18.40;99.90;;;;;;4930355;28;21069;-83
2022/07/29 08:32:39;;;;;;;0.30;0.30;;;18.70;99.90;;;;;;4949952;28;20047;-84
2022/07/29 08:35:05;;;;;;;0.30;0.30;;;18.50;99.90;;;;;;4914341;28;20058;-84
2022/07/29 08:37:31;;;;;;;0.30;0.30;;;18.60;99.90;;;;;;4932554;28;20046;-85
2022/07/29 08:39:56;;;;;;;0.30;0.30;;;18.80;99.90;;;;;;4925625;28;20534;-84
2022/07/29 08:42:22;;;;;;;0.30;0.30;;;18.70;99.90;;;;;;4928776;28;20047;-85
2022/07/29 08:44:50;;;;;;;0.35;0.35;;;18.80;99.90;;;;;;4913292;28;21166;-85
2022/07/29 08:47:16;;;;;;;0.30;0.30;;;18.80;99.90;;;;;;4934136;28;20128;-84
2022/07/29 08:49:43;;;;;;;0.38;0.38;;;18.50;99.90;;;;;;4933761;28;20053;-86
2022/07/29 08:52:13;;;;;;;0.30;0.30;;;18.70;99.90;;;;;;4930821;28;20204;-85
2022/07/29 08:54:42;;;;;;;0.30;0.30;;;18.80;99.90;;;;;;4930913;28;20047;-83
2022/07/29 08:57:12;;;;;;;0.30;0.30;;;19.20;99.90;;;;;;4948811;28;20134;-84
2022/07/29 08:59:42;;;;;;;0.30;0.30;;;19.30;99.90;;;;;;4947115;28;20049;-84
2022/07/29 09:02:18;;;;;;;0.30;0.30;;;19.40;99.90;;;;;;4929671;28;20361;-82
2022/07/29 09:04:45;;;;;;;0.40;0.40;;;19.20;99.90;;;;;;4951827;28;20447;-83
2022/07/29 09:07:18;;;;;;;0.30;0.30;;;19.30;99.90;;;;;;4932636;28;20055;-82
2022/07/29 09:09:44;;;;;;;;;;;19.20;99.90;;;;;;4932393;28;20565;-84
2022/07/29 09:12:12;;;;;;;0.30;0.30;;;19.40;99.90;;;;;;4933732;28;19969;-86
2022/07/29 09:14:39;;;;;;;0.30;0.30;;;19.50;99.90;;;;;;4923675;28;20054;-84
2022/07/29 09:17:05;;;;;;;0.30;0.30;;;19.20;99.90;;;;;;4923415;28;20046;-85
2022/07/29 09:19:34;;;;;;;0.30;0.30;;;19.30;99.90;;;;;;4903941;28;20101;-82
2022/07/29 09:22:02;;;;;;;0.30;0.30;;;19.20;99.90;;;;;;4921542;28;20053;-85
2022/07/29 09:24:46;;;;;;;0.30;0.30;;;19.60;99.90;;;;;;4915084;28;20627;-82
2022/07/29 09:27:26;;;;;;;0.30;0.30;;;19.70;99.90;;;;;;4944308;28;20494;-83
2022/07/29 09:30:00;;;;;;;0.30;0.30;;;19.90;99.90;;;;;;4928972;28;20050;-83
2022/07/29 09:32:27;;;;;;;0.30;0.30;;;19.90;99.90;;;;;;4925319;28;20050;-84
2022/07/29 09:35:16;;;;;;;0.30;0.30;;;20.00;99.90;;;;;;4930418;28;20046;-85
2022/07/29 09:37:43;;;;;;;0.38;0.38;;;20.00;99.90;;;;;;4925161;28;20049;-85
2022/07/29 09:40:17;;;;;;;0.30;0.30;;;19.90;99.90;;;;;;4931716;28;20078;-83
2022/07/29 09:42:45;;;;;;;0.30;0.30;;;19.50;99.90;;;;;;4932817;28;20113;-85
2022/07/29 09:45:12;;;;;;;0.30;0.30;;;19.60;99.90;;;;;;4928109;28;20058;-85
2022/07/29 09:47:48;;;;;;;0.30;0.30;;;19.70;99.90;;;;;;4933859;28;20567;-84
2022/07/29 09:50:15;;;;;;;0.32;0.32;;;19.60;99.90;;;;;;4942645;28;20108;-86
2022/07/29 09:52:49;;;;;;;0.30;0.30;;;19.50;99.90;;;;;;4935510;28;20050;-83
2022/07/29 09:55:15;;;;;;;;;;;19.40;99.90;;;;;;4940272;28;20082;-84
2022/07/29 09:57:42;;;;;;;0.30;0.30;;;19.30;99.90;;;;;;4930817;28;19932;-83
2022/07/29 10:00:12;;;;;;;0.30;0.30;;;19.30;99.90;;;;;;4927024;28;20637;-85
2022/07/29 10:02:40;;;;;;;0.30;0.30;;;19.30;99.90;;;;;;4929137;28;20041;-84
2022/07/29 10:05:17;;;;;;;0.30;0.30;;;19.20;99.90;;;;;;4929508;28;20126;-85
2022/07/29 10:07:47;;;;;;;0.30;0.30;;;19.40;99.90;;;;;;4932297;28;20061;-84
2022/07/29 10:10:31;;;;;;;0.30;0.30;;;19.50;99.90;;;;;;4932496;28;20410;-85
2022/07/29 10:13:00;;;;;;;0.30;0.30;;;19.50;99.90;;;;;;4946194;28;20581;-84
2022/07/29 10:15:31;;;;;;;0.30;0.30;;;19.60;99.90;;;;;;4913032;28;20041;-84
2022/07/29 10:17:59;;;;;;;0.30;0.30;;;19.60;99.90;;;;;;4939315;28;20121;-83
2022/07/29 10:20:26;;;;;;;0.30;0.30;;;19.60;99.90;;;;;;4943773;28;20058;-85
2022/07/29 10:22:53;;;;;;;0.30;0.30;;;19.60;99.90;;;;;;4942395;28;20157;-83
2022/07/29 10:25:19;;;;;;;0.30;0.30;;;19.40;99.90;;;;;;4921569;28;20520;-83
2022/07/29 10:27:47;;;;;;;0.30;0.30;;;19.50;99.90;;;;;;4931309;28;20540;-84
2022/07/29 10:30:15;;;;;;;0.30;0.30;;;19.50;99.90;;;;;;4929518;28;20071;-85
2022/07/29 10:33:11;;;;;;;0.30;0.30;;;19.60;99.90;;;;;;4913428;28;20050;-84
2022/07/29 10:35:54;;;;;;;0.30;0.30;;;19.70;99.90;;;;;;4929713;28;20054;-84
2022/07/29 10:38:44;;;;;;;0.30;0.30;;;19.60;99.90;;;;;;4909958;28;20158;-84
2022/07/29 10:41:57;;;;;;;0.30;0.30;;;19.80;99.90;;;;;;4926420;28;20506;-84
2022/07/29 10:44:25;;;;;;;0.30;0.30;;;19.90;99.90;;;;;;4865390;29;20041;-84
2022/07/29 10:46:51;;;;;;;0.30;0.30;;;20.00;99.90;;;;;;4850188;29;20818;-84
2022/07/29 10:49:19;;;;;;;0.30;0.30;;;19.90;99.90;;;;;;4897121;28;20830;-81
2022/07/29 10:51:53;;;;;;;0.30;0.30;;;20.10;99.90;;;;;;4939546;28;20128;-84
2022/07/29 10:54:19;;;;;;;;;;;20.00;99.90;;;;;;4953162;28;20067;-84
2022/07/29 10:56:45;;;;;;;0.30;0.30;;;20.00;99.90;;;;;;4937205;28;19922;-85
2022/07/29 10:59:20;;;;;;;0.30;0.30;;;20.20;99.90;;;;;;4933087;28;20038;-83
2022/07/29 11:01:50;;;;;;;0.30;0.30;;;20.50;99.90;;;;;;4940251;28;20984;-84
2022/07/29 11:04:45;;;;;;;0.30;0.30;;;20.30;99.90;;;;;;4939181;28;20046;-85
2022/07/29 11:07:12;;;;;;;0.30;0.30;;;20.30;99.90;;;;;;4945622;28;20054;-81
2022/07/29 11:09:38;;;;;;;0.30;0.30;;;20.40;99.90;;;;;;4939077;28;20732;-84
2022/07/29 11:12:34;;;;;;;0.30;0.30;;;20.30;99.90;;;;;;4932096;28;20078;-85
2022/07/29 11:15:02;;;;;;;0.30;0.30;;;20.20;99.90;;;;;;4924833;28;20058;-83
2022/07/29 11:17:28;;;;;;;0.30;0.30;;;20.10;99.90;;;;;;4934150;28;20547;-85
2022/07/29 11:20:32;;;;;;;0.30;0.30;;;20.10;99.90;;;;;;4936545;28;20062;-85
2022/07/29 11:22:59;;;;;;;0.40;0.40;;;20.20;99.90;;;;;;4934908;28;20061;-86
2022/07/29 11:25:25;;;;;;;0.30;0.30;;;20.10;99.90;;;;;;4934545;28;20058;-85
2022/07/29 11:28:12;;;;;;;0.30;0.30;;;19.90;99.90;;;;;;4915886;28;20099;-85
2022/07/29 11:30:52;;;;;;;0.30;0.30;;;20.10;99.90;;;;;;4928965;28;20047;-84
2022/07/29 11:33:32;;;;;;;0.30;0.30;;;20.10;99.90;;;;;;4931629;28;20062;-84
2022/07/29 11:36:27;;;;;;;0.30;0.30;;;20.10;99.90;;;;;;4930947;28;21154;-85
2022/07/29 11:39:26;;;;;;;0.30;0.30;;;20.20;99.90;;;;;;4916863;28;21141;-86
2022/07/29 11:41:53;;;;;;;0.30;0.30;;;20.40;99.90;;;;;;4934322;28;20058;-86
2022/07/29 11:44:56;;;;;;;0.40;0.40;;;20.20;99.90;;;;;;4940168;28;20043;-83
2022/07/29 11:47:22;;;;;;;0.30;0.30;;;20.10;99.90;;;;;;4932395;28;20083;-83
2022/07/29 11:49:50;;;;;;;0.30;0.30;;;20.20;99.90;;;;;;4926495;28;20082;-84
2022/07/29 11:52:17;;;;;;;0.30;0.30;;;20.20;99.90;;;;;;4921281;28;20503;-85
2022/07/29 11:55:05;;;;;;;0.30;0.30;;;20.20;99.90;;;;;;4936838;28;20074;-84
2022/07/29 11:57:31;;;;;;;0.30;0.30;;;20.40;99.90;;;;;;4935880;28;20061;-84
2022/07/29 11:59:58;;;;;;;0.30;0.30;;;20.50;99.90;;;;;;4927235;28;20161;-85
2022/07/29 12:02:24;;;;;;;0.30;0.30;;;20.50;99.90;;;;;;4930000;28;20423;-84
2022/07/29 12:04:55;;;;;;;0.30;0.30;;;20.50;99.90;;;;;;4926976;28;20076;-85
2022/07/29 12:07:28;;;;;;;0.30;0.30;;;20.50;99.90;;;;;;4931433;28;20042;-84
2022/07/29 12:09:53;;;;;;;0.30;0.30;;;20.60;99.90;;;;;;4935747;28;20137;-84
2022/07/29 12:12:20;;;;;;;0.30;0.30;;;20.60;99.90;;;;;;4927465;28;20053;-85
2022/07/29 12:14:46;;;;;;;0.30;0.30;;;20.60;99.90;;;;;;4909621;28;20977;-84
2022/07/29 12:17:33;;;;;;;0.30;0.30;;;20.90;99.90;;;;;;4914100;28;20046;-85
2022/07/29 12:20:12;;;;;;;0.30;0.30;;;21.00;99.90;;;;;;4926925;28;20493;-85
2022/07/29 12:22:43;;;;;;;0.30;0.30;;;21.20;99.90;;;;;;4932802;28;20969;-84
2022/07/29 12:25:14;;;;;;;0.30;0.30;;;21.20;99.90;;;;;;4934937;28;20058;-84
2022/07/29 12:27:40;;;;;;;0.30;0.30;;;21.30;99.90;;;;;;4930240;28;20111;-84
2022/07/29 12:30:09;;;;;;;0.30;0.30;;;21.20;99.90;;;;;;4915683;28;20738;-83
2022/07/29 12:32:36;;;;;;;0.30;0.30;;;21.50;99.90;;;;;;4948455;28;20051;-85
2022/07/29 12:35:21;;;;;;;0.30;0.30;;;21.70;99.90;;;;;;4913222;28;20110;-85
2022/07/29 12:37:47;;;;;;;;;;;21.70;99.90;;;;;;4942982;28;20065;-85
2022/07/29 12:40:16;;;;;;;0.30;0.30;;;21.80;99.90;;;;;;4933420;28;19925;-85
2022/07/29 12:43:12;;;;;;;0.30;0.30;;;22.00;99.90;;;;;;4926604;28;20057;-85
2022/07/29 12:45:40;;;;;;;0.30;0.30;;;22.10;99.90;;;;;;4930612;28;20050;-84
2022/07/29 12:48:08;;;;;;;0.30;0.30;;;22.30;99.90;;;;;;4927807;28;20065;-84
2022/07/29 12:50:35;;;;;;;0.30;0.30;;;22.30;99.90;;;;;;4926768;28;20058;-84
2022/07/29 12:53:13;;;;;;;0.30;0.30;;;22.40;99.90;;;;;;4914189;28;20051;-83
2022/07/29 12:55:48;;;;;;;0.30;0.30;;;22.30;99.90;;;;;;4938402;28;20061;-86
2022/07/29 12:58:33;;;;;;;0.30;0.30;;;22.80;99.90;;;;;;4922020;28;20046;-84
2022/07/29 13:01:17;;;;;;;0.30;0.30;;;23.00;99.90;;;;;;4917665;28;20521;-84
2022/07/29 13:03:53;;;;;;;0.30;0.30;;;23.60;99.90;;;;;;4944837;28;20117;-86
2022/07/29 13:06:31;;;;;;;0.30;0.30;;;23.50;99.90;;;;;;4933340;28;20101;-86
2022/07/29 13:09:03;;;;;;;0.30;0.30;;;23.20;99.90;;;;;;4930719;28;20049;-83